Time;durP1;ratioP1;P1;durP2;ratioP2;P2;SDS_P1;SDS_P2;PMS_P1;PMS_P2;Temp;Humidity;BMP_temperature;BMP_pressure;BME280_temperature;BME280_humidity;BME280_pressure;Samples;Min_cycle;Max_cycle;Signal;HPM_P1;HPM_P2
2023/07/25 00:02:16;;;;;;;0.30;0.30;;;27.60;60.00;;;28.26;43.54;94021.22;5075739;28;20192;-37
2023/07/25 00:04:43;;;;;;;0.20;0.20;;;27.60;60.10;;;28.25;43.51;94022.31;5075648;28;20248;-37
2023/07/25 00:07:10;;;;;;;0.30;0.30;;;27.60;60.10;;;28.24;42.99;94024.22;5075812;28;20239;-37
2023/07/25 00:09:37;;;;;;;0.28;0.28;;;27.50;60.00;;;28.22;43.33;94018.38;5075795;28;20207;-37
2023/07/25 00:12:04;;;;;;;0.30;0.30;;;27.50;60.00;;;28.22;43.56;94023.75;5058149;28;20291;-37
2023/07/25 00:14:34;;;;;;;0.30;0.30;;;27.50;59.90;;;28.21;43.63;94021.38;5076146;28;20201;-37
2023/07/25 00:17:01;;;;;;;0.30;0.30;;;27.50;59.90;;;28.18;42.98;94017.44;5076171;28;20202;-39
2023/07/25 00:19:28;;;;;;;0.30;0.30;;;27.50;60.00;;;28.17;43.31;94001.56;5075635;28;20739;-37
2023/07/25 00:21:55;;;;;;;0.22;0.22;;;27.50;60.20;;;28.18;43.30;94003.16;5075629;28;20202;-37
2023/07/25 00:24:23;;;;;;;0.30;0.30;;;27.50;60.30;;;28.17;43.35;94001.56;5075537;28;20666;-40
2023/07/25 00:26:50;;;;;;;0.28;0.28;;;27.50;60.30;;;28.16;43.81;93998.09;5091399;28;20220;-37
2023/07/25 00:29:17;;;;;;;0.20;0.20;;;27.40;60.30;;;28.15;43.74;94001.09;5074680;28;20228;-41
2023/07/25 00:31:44;;;;;;;0.20;0.20;;;27.40;60.20;;;28.16;43.91;93997.31;5076193;28;20191;-38
2023/07/25 00:34:11;;;;;;;0.20;0.20;;;27.40;60.20;;;28.13;43.85;93990.66;5075669;28;20195;-38
2023/07/25 00:36:38;;;;;;;0.30;0.30;;;27.40;60.20;;;28.14;43.66;93988.75;5074607;28;20217;-38
2023/07/25 00:39:05;;;;;;;0.30;0.30;;;27.40;60.30;;;28.13;43.38;93981.78;5075758;28;20568;-38
2023/07/25 00:41:33;;;;;;;0.20;0.20;;;27.40;60.30;;;28.11;43.72;93974.81;5075832;28;20212;-38
2023/07/25 00:44:00;;;;;;;0.30;0.30;;;27.40;60.50;;;28.11;43.46;93972.13;5075238;28;20677;-37
2023/07/25 00:46:27;;;;;;;0.30;0.30;;;27.40;60.40;;;28.11;44.09;93961.34;5058394;28;20199;-38
2023/07/25 00:48:55;;;;;;;0.20;0.20;;;27.40;60.50;;;28.11;44.12;93965.91;5075972;28;20685;-37
2023/07/25 00:51:22;;;;;;;0.30;0.30;;;27.40;60.50;;;28.10;44.17;93958.97;5074646;28;20190;-37
2023/07/25 00:53:50;;;;;;;0.30;0.30;;;27.40;60.50;;;28.04;43.95;93961.03;5074399;28;20199;-37
2023/07/25 00:56:18;;;;;;;0.30;0.30;;;27.40;60.50;;;28.08;44.20;93961.97;5075025;28;20197;-37
2023/07/25 00:58:47;;;;;;;0.30;0.30;;;27.40;60.50;;;28.08;44.32;93967.38;5074508;28;20293;-38
2023/07/25 01:01:14;;;;;;;0.28;0.28;;;27.40;60.60;;;28.07;44.04;93965.00;5075966;28;20699;-37
2023/07/25 01:03:41;;;;;;;0.30;0.30;;;27.40;60.60;;;28.06;44.48;93969.63;5075678;28;20640;-37
2023/07/25 01:06:13;;;;;;;0.30;0.30;;;27.30;60.70;;;28.06;43.83;93963.41;5076163;28;20195;-38
2023/07/25 01:08:51;;;;;;;0.28;0.28;;;27.40;60.70;;;28.04;44.51;93952.94;5057862;28;20224;-40
2023/07/25 01:11:19;;;;;;;0.30;0.30;;;27.40;60.60;;;28.03;44.46;93950.59;5077472;28;20175;-38
2023/07/25 01:13:47;;;;;;;0.30;0.30;;;27.40;60.60;;;28.02;44.36;93940.91;5078715;28;20271;-37
2023/07/25 01:16:22;;;;;;;0.22;0.22;;;27.40;60.60;;;28.00;44.29;93926.97;5080360;28;20196;-38
2023/07/25 01:18:51;;;;;;;0.30;0.30;;;27.40;60.70;;;27.99;44.24;93915.41;5079067;28;20201;-37
2023/07/25 01:21:19;;;;;;;0.20;0.20;;;27.30;60.70;;;27.97;44.54;93909.53;5079134;28;20206;-37
2023/07/25 01:23:46;;;;;;;0.30;0.30;;;27.30;60.60;;;27.96;44.48;93914.16;5080021;28;20202;-39
2023/07/25 01:26:16;;;;;;;0.30;0.30;;;27.30;60.70;;;27.95;44.23;93917.16;5079544;28;20196;-38
2023/07/25 01:28:43;;;;;;;0.30;0.30;;;27.30;60.70;;;27.92;44.44;93912.44;5080421;28;20215;-38
2023/07/25 01:31:10;;;;;;;0.30;0.30;;;27.30;60.70;;;27.92;44.13;93912.44;5077770;28;20194;-37
2023/07/25 01:33:37;;;;;;;0.20;0.20;;;27.30;60.60;;;27.87;44.26;93923.38;5077590;28;20208;-37
2023/07/25 01:36:04;;;;;;;0.30;0.30;;;27.30;60.70;;;27.89;44.01;93932.75;5078614;28;20197;-37
2023/07/25 01:38:31;;;;;;;0.30;0.30;;;27.30;60.60;;;27.89;44.55;93940.81;5077538;28;20231;-38
2023/07/25 01:40:59;;;;;;;0.30;0.30;;;27.20;60.60;;;27.89;44.03;93942.72;5078481;28;20202;-37
2023/07/25 01:43:26;;;;;;;0.30;0.30;;;27.20;60.70;;;27.89;44.73;93940.03;5078269;28;20369;-37
2023/07/25 01:45:53;;;;;;;0.20;0.20;;;27.20;60.80;;;27.90;44.71;93938.91;5078516;28;20560;-37
2023/07/25 01:48:20;;;;;;;0.20;0.20;;;27.20;60.90;;;27.89;44.56;93937.31;5078268;28;20242;-37
2023/07/25 01:50:47;;;;;;;0.28;0.28;;;27.20;61.00;;;27.89;44.19;93950.81;5077347;28;20535;-37
2023/07/25 01:53:14;;;;;;;0.30;0.30;;;27.20;61.00;;;27.89;44.26;93942.72;5077464;28;20235;-37
2023/07/25 01:55:42;;;;;;;0.20;0.20;;;27.20;60.90;;;27.89;44.82;93948.09;5078560;28;20637;-37
2023/07/25 01:58:09;;;;;;;0.20;0.20;;;27.20;61.00;;;27.88;44.95;93963.50;5077198;28;20212;-37
2023/07/25 02:00:36;;;;;;;0.30;0.30;;;27.20;61.00;;;27.87;44.78;93958.41;5077370;28;20194;-37
2023/07/25 02:03:03;;;;;;;0.30;0.30;;;27.20;61.10;;;27.87;44.55;93944.94;5078158;28;20197;-37
2023/07/25 02:05:30;;;;;;;0.28;0.28;;;27.20;61.10;;;27.88;45.01;93943.81;5077110;28;20597;-37
2023/07/25 02:07:57;;;;;;;0.20;0.20;;;27.20;61.10;;;27.87;45.10;93944.94;5077018;28;20255;-38
2023/07/25 02:10:24;;;;;;;0.30;0.30;;;27.20;61.20;;;27.87;44.84;93961.09;5078530;28;20200;-37
2023/07/25 02:12:53;;;;;;;0.30;0.30;;;27.20;61.10;;;27.87;45.01;93961.09;5060307;28;20207;-37
2023/07/25 02:15:20;;;;;;;0.30;0.30;;;27.20;61.10;;;27.85;44.68;93953.34;5078072;28;20643;-37
2023/07/25 02:17:48;;;;;;;0.30;0.30;;;27.10;61.10;;;27.85;44.40;93961.44;5077052;28;20203;-38
2023/07/25 02:20:16;;;;;;;0.20;0.20;;;27.20;61.20;;;27.84;44.53;93959.06;5076902;28;20198;-37
2023/07/25 02:22:43;;;;;;;0.30;0.30;;;27.20;61.20;;;27.84;44.51;93959.84;5075557;28;20243;-41
2023/07/25 02:25:11;;;;;;;0.30;0.30;;;27.20;61.20;;;27.83;45.00;93961.00;5076864;28;20326;-37
2023/07/25 02:27:38;;;;;;;0.30;0.30;;;27.20;61.30;;;27.83;45.14;93954.81;5076794;28;20244;-38
2023/07/25 02:30:06;;;;;;;0.20;0.20;;;27.10;61.10;;;27.83;44.86;93946.72;5078027;28;20572;-37
2023/07/25 02:32:33;;;;;;;0.30;0.30;;;27.10;61.30;;;27.82;44.83;93945.94;5076718;28;20213;-37
2023/07/25 02:35:00;;;;;;;0.30;0.30;;;27.10;61.30;;;27.81;44.70;93947.06;5077942;28;20201;-37
2023/07/25 02:37:27;;;;;;;0.30;0.30;;;27.10;61.30;;;27.81;45.19;93947.06;5077301;28;20218;-37
2023/07/25 02:39:54;;;;;;;0.20;0.20;;;27.10;61.30;;;27.79;44.98;93947.38;5076739;28;20217;-37
2023/07/25 02:42:21;;;;;;;0.30;0.30;;;27.10;61.30;;;27.78;44.84;93940.41;5076895;28;20312;-39
2023/07/25 02:44:48;;;;;;;0.20;0.20;;;27.10;61.40;;;27.76;44.74;93934.53;5077658;28;20229;-37
2023/07/25 02:47:15;;;;;;;0.20;0.20;;;27.10;61.40;;;27.76;45.21;93933.78;5077040;28;20258;-39
2023/07/25 02:49:43;;;;;;;0.30;0.30;;;27.10;61.40;;;27.75;44.88;93930.25;5078343;28;20606;-37
2023/07/25 02:52:10;;;;;;;0.20;0.20;;;27.10;61.40;;;27.74;45.43;93930.59;5078138;28;20188;-39
2023/07/25 02:54:37;;;;;;;0.30;0.30;;;27.10;61.40;;;27.74;45.10;93941.38;5077954;28;20191;-37
2023/07/25 02:57:05;;;;;;;0.20;0.20;;;27.10;61.40;;;27.73;44.81;93937.88;5077622;28;20617;-37
2023/07/25 02:59:32;;;;;;;0.20;0.20;;;27.10;61.40;;;27.73;45.33;93934.41;5078041;28;20187;-38
2023/07/25 03:02:00;;;;;;;0.25;0.25;;;27.10;61.50;;;27.70;45.35;93933.16;5076888;28;20630;-37
2023/07/25 03:04:27;;;;;;;0.20;0.20;;;27.10;61.50;;;27.72;45.55;93943.59;5077810;28;20190;-38
2023/07/25 03:06:54;;;;;;;0.30;0.30;;;27.00;61.60;;;27.71;45.52;93939.31;5078211;28;20231;-37
2023/07/25 03:09:21;;;;;;;0.30;0.30;;;27.00;61.50;;;27.71;45.05;93947.41;5077653;28;20239;-37
2023/07/25 03:11:49;;;;;;;0.30;0.30;;;27.00;61.50;;;27.70;45.05;93933.16;5077629;28;20189;-37
2023/07/25 03:14:16;;;;;;;0.28;0.28;;;27.00;61.50;;;27.69;45.11;93920.78;5076646;28;20284;-37
2023/07/25 03:16:43;;;;;;;0.30;0.30;;;27.00;61.60;;;27.69;45.31;93914.63;5076695;28;20538;-40
2023/07/25 03:19:10;;;;;;;0.30;0.30;;;27.00;61.70;;;27.68;45.65;93915.72;5077857;28;20215;-39
2023/07/25 03:21:37;;;;;;;0.30;0.30;;;27.00;61.70;;;27.67;45.24;93917.63;5078134;28;20257;-36
2023/07/25 03:24:05;;;;;;;0.30;0.30;;;27.00;61.70;;;27.67;45.78;93925.72;5076818;28;20203;-38
2023/07/25 03:26:33;;;;;;;0.30;0.30;;;27.00;61.70;;;27.66;45.45;93926.03;5092414;28;20209;-37
2023/07/25 03:29:00;;;;;;;0.20;0.20;;;27.00;61.70;;;27.64;45.80;93927.16;5076698;28;20306;-37
2023/07/25 03:31:27;;;;;;;0.30;0.30;;;27.00;61.80;;;27.64;45.32;93919.06;5076323;28;20187;-37
2023/07/25 03:33:55;;;;;;;0.30;0.30;;;27.00;61.80;;;27.64;45.46;93919.06;5058816;28;20643;-37
2023/07/25 03:36:24;;;;;;;0.30;0.30;;;27.00;61.90;;;27.64;45.25;93910.22;5058906;28;20274;-37
2023/07/25 03:38:51;;;;;;;0.20;0.20;;;27.00;61.90;;;27.63;45.59;93911.31;5075612;28;20275;-37
2023/07/25 03:41:18;;;;;;;0.30;0.30;;;27.00;61.80;;;27.63;45.59;93905.94;5058762;28;20218;-37
2023/07/25 03:43:45;;;;;;;0.30;0.30;;;27.00;61.90;;;27.62;45.44;93899.75;5075827;28;20263;-37
2023/07/25 03:46:12;;;;;;;0.22;0.22;;;27.00;61.90;;;27.60;46.09;93901.97;5076647;28;20187;-38
2023/07/25 03:48:39;;;;;;;0.20;0.20;;;26.90;61.90;;;27.61;45.89;93919.72;5075013;28;20222;-37
2023/07/25 03:51:06;;;;;;;0.30;0.30;;;27.00;62.00;;;27.60;45.66;93906.56;5076463;28;20190;-37
2023/07/25 03:53:34;;;;;;;0.30;0.30;;;26.90;62.00;;;27.60;45.90;93906.56;5074904;28;20205;-38
2023/07/25 03:56:01;;;;;;;0.30;0.30;;;27.00;62.20;;;27.59;45.82;93895.00;5075074;28;20335;-37
2023/07/25 03:58:28;;;;;;;0.28;0.28;;;27.00;62.20;;;27.60;45.84;93895.78;5075881;28;20205;-37
2023/07/25 04:00:55;;;;;;;0.30;0.30;;;27.00;62.30;;;27.60;45.84;93907.38;5075938;28;20229;-39
2023/07/25 04:03:22;;;;;;;0.30;0.30;;;27.00;62.20;;;27.60;46.14;93909.25;5075337;28;20205;-38
2023/07/25 04:05:53;;;;;;;0.30;0.30;;;27.00;62.20;;;27.59;46.34;93905.00;5075803;28;20623;-38
2023/07/25 04:08:20;;;;;;;0.20;0.20;;;27.00;62.20;;;27.59;46.05;93902.31;5075053;28;20692;-38
2023/07/25 04:10:47;;;;;;;0.30;0.30;;;27.00;62.30;;;27.60;45.76;93903.88;5076056;28;20282;-38
2023/07/25 04:13:14;;;;;;;0.30;0.30;;;27.00;62.30;;;27.60;46.41;93909.25;5076048;28;20231;-39
2023/07/25 04:15:42;;;;;;;0.30;0.30;;;27.00;62.20;;;27.60;46.32;93911.94;5074634;28;20287;-38
2023/07/25 04:18:09;;;;;;;0.20;0.20;;;27.00;62.20;;;27.60;46.35;93903.88;5075803;28;20201;-38
2023/07/25 04:20:36;;;;;;;0.30;0.30;;;27.00;62.20;;;27.59;46.18;93908.47;5075616;28;20565;-38
2023/07/25 04:23:03;;;;;;;0.20;0.20;;;27.00;62.30;;;27.59;45.83;93910.41;5058187;28;20279;-38
2023/07/25 04:25:30;;;;;;;0.30;0.30;;;27.00;62.30;;;27.60;46.10;93920.03;5074596;28;20204;-39
2023/07/25 04:27:57;;;;;;;0.30;0.30;;;27.00;62.30;;;27.59;46.23;93921.94;5075513;28;20748;-38
2023/07/25 04:30:24;;;;;;;0.30;0.30;;;27.00;62.30;;;27.59;46.01;93924.66;5074516;28;20283;-39
2023/07/25 04:32:52;;;;;;;0.30;0.30;;;27.00;62.50;;;27.59;46.32;93913.88;5075494;28;20267;-39
2023/07/25 04:35:19;;;;;;;0.32;0.32;;;27.00;62.40;;;27.59;46.50;93919.25;5074101;28;20202;-39
2023/07/25 04:37:46;;;;;;;0.38;0.38;;;27.00;62.50;;;27.59;46.52;93918.47;5075883;28;20278;-39
2023/07/25 04:40:14;;;;;;;0.30;0.30;;;27.00;62.50;;;27.60;46.51;93925.41;5075489;28;20202;-38
2023/07/25 04:42:41;;;;;;;0.30;0.30;;;27.00;62.50;;;27.59;46.89;93916.56;5075563;28;20239;-40
2023/07/25 04:45:09;;;;;;;0.30;0.30;;;27.00;62.60;;;27.60;46.93;93910.06;5075218;28;20364;-39
2023/07/25 04:47:36;;;;;;;0.30;0.30;;;27.00;62.50;;;27.59;46.67;93911.19;5073936;28;20242;-38
2023/07/25 04:50:03;;;;;;;0.20;0.20;;;27.00;62.60;;;27.60;46.18;93898.47;5074313;28;20199;-39
2023/07/25 04:52:30;;;;;;;0.30;0.30;;;27.00;62.50;;;27.59;46.09;93913.09;5075511;28;20192;-38
2023/07/25 04:54:58;;;;;;;0.30;0.30;;;27.00;62.40;;;27.58;46.20;93927.66;5075217;28;20221;-38
2023/07/25 04:57:26;;;;;;;0.30;0.30;;;27.00;62.30;;;27.57;46.34;93950.31;5075513;28;20219;-38
2023/07/25 04:59:53;;;;;;;0.30;0.30;;;27.00;62.30;;;27.57;46.27;93940.31;5075210;28;20581;-40
2023/07/25 05:02:21;;;;;;;0.20;0.20;;;27.00;62.40;;;27.58;46.08;93933.06;5075258;28;20273;-39
2023/07/25 05:04:48;;;;;;;0.30;0.30;;;27.00;62.50;;;27.57;46.72;93937.63;5074910;28;20646;-38
2023/07/25 05:07:17;;;;;;;0.30;0.30;;;27.00;62.50;;;27.58;46.34;93933.84;5074552;28;20257;-40
2023/07/25 05:09:44;;;;;;;0.30;0.30;;;27.00;62.60;;;27.57;46.66;93926.88;5075243;28;20213;-38
2023/07/25 05:12:13;;;;;;;0.30;0.30;;;27.00;62.50;;;27.56;46.32;93919.91;5075641;28;20198;-39
2023/07/25 05:14:40;;;;;;;0.30;0.30;;;27.00;62.50;;;27.57;46.29;93926.88;5075221;28;20193;-39
2023/07/25 05:17:08;;;;;;;0.25;0.25;;;27.00;63.50;;;27.58;46.14;93936.53;5075411;28;20222;-40
2023/07/25 05:19:35;;;;;;;0.20;0.20;;;27.00;62.50;;;27.57;46.10;93950.31;5075094;28;20226;-38
2023/07/25 05:22:02;;;;;;;0.20;0.20;;;27.00;62.30;;;27.57;45.91;93963.78;5075501;28;20203;-38
2023/07/25 05:24:29;;;;;;;0.30;0.30;;;27.00;62.20;;;27.55;46.38;93974.91;5074851;28;20709;-38
2023/07/25 05:26:56;;;;;;;0.25;0.25;;;27.00;62.20;;;27.55;46.57;93982.97;5075166;28;20196;-37
2023/07/25 05:29:26;;;;;;;0.20;0.20;;;27.00;63.20;;;27.56;46.38;93989.16;5075874;28;20297;-38
2023/07/25 05:31:53;;;;;;;0.20;0.20;;;27.00;62.30;;;27.55;46.18;93993.75;5074355;28;20685;-38
2023/07/25 05:34:21;;;;;;;0.22;0.22;;;27.00;62.30;;;27.54;45.86;93992.16;5073652;28;20218;-38
2023/07/25 05:36:48;;;;;;;0.30;0.30;;;26.90;62.10;;;27.55;46.48;93990.25;5075571;28;20221;-38
2023/07/25 05:39:15;;;;;;;0.30;0.30;;;26.90;62.20;;;27.53;45.96;93990.59;5075102;28;20197;-38
2023/07/25 05:41:42;;;;;;;0.30;0.30;;;26.90;62.30;;;27.53;46.39;93992.50;5074846;28;20199;-38
2023/07/25 05:44:10;;;;;;;0.30;0.30;;;26.90;62.20;;;27.54;46.36;93991.34;5074498;28;20275;-38
2023/07/25 05:46:37;;;;;;;0.30;0.30;;;26.90;62.20;;;27.53;46.00;93992.50;5075097;28;20672;-38
2023/07/25 05:49:04;;;;;;;0.30;0.30;;;26.90;62.10;;;27.52;45.78;93997.06;5074861;28;20245;-38
2023/07/25 05:51:34;;;;;;;0.30;0.30;;;26.90;62.00;;;27.51;45.88;93992.78;5075472;28;20770;-39
2023/07/25 05:54:01;;;;;;;0.30;0.30;;;26.90;62.20;;;27.51;46.57;93994.72;5074753;28;20255;-38
2023/07/25 05:56:28;;;;;;;0.30;0.30;;;26.90;62.30;;;27.51;45.83;94000.09;5073539;28;20204;-38
2023/07/25 05:58:55;;;;;;;0.30;0.30;;;26.90;62.20;;;27.51;46.24;93992.78;5078117;28;20212;-38
2023/07/25 06:01:22;;;;;;;0.30;0.30;;;26.90;62.00;;;27.50;46.05;93985.06;5078628;28;20197;-37
2023/07/25 06:03:49;;;;;;;0.20;0.20;;;26.90;63.00;;;27.50;46.27;93985.06;5078553;28;20197;-38
2023/07/25 06:06:16;;;;;;;0.30;0.30;;;26.90;62.10;;;27.48;46.22;93988.84;5077197;28;20614;-38
2023/07/25 06:08:44;;;;;;;0.30;0.30;;;26.90;62.10;;;27.50;46.21;93982.34;5078863;28;20273;-39
2023/07/25 06:11:11;;;;;;;0.30;0.30;;;26.90;62.80;;;27.46;46.00;93966.81;5078579;28;20637;-38
2023/07/25 06:13:38;;;;;;;0.30;0.30;;;26.80;61.80;;;27.47;46.17;93954.16;5077399;28;20224;-37
2023/07/25 06:16:05;;;;;;;0.40;0.40;;;26.90;61.90;;;27.45;45.30;93943.72;5078364;28;20293;-38
2023/07/25 06:18:33;;;;;;;0.20;0.20;;;26.90;61.90;;;27.45;46.12;93951.81;5078001;28;20284;-38
2023/07/25 06:21:00;;;;;;;0.30;0.30;;;26.90;61.90;;;27.44;45.79;93969.06;5078362;28;20198;-37
2023/07/25 06:23:27;;;;;;;0.30;0.30;;;26.90;61.90;;;27.43;45.84;93994.41;5078043;28;20225;-39
2023/07/25 06:25:54;;;;;;;0.30;0.30;;;26.80;61.70;;;27.41;45.87;93991.25;5077790;28;20191;-38
2023/07/25 06:28:21;;;;;;;0.30;0.30;;;26.80;61.50;;;27.39;45.56;93996.16;5077869;28;20214;-38
2023/07/25 06:30:48;;;;;;;0.30;0.30;;;26.80;61.50;;;27.40;45.82;94016.56;5077761;28;20276;-38
2023/07/25 06:33:15;;;;;;;0.30;0.30;;;26.80;61.60;;;27.38;45.57;94016.09;5076963;28;20201;-38
2023/07/25 06:35:43;;;;;;;0.30;0.30;;;26.80;61.60;;;27.38;45.45;94018.00;5078117;28;20188;-37
2023/07/25 06:38:10;;;;;;;0.30;0.30;;;26.80;61.50;;;27.36;45.38;94012.94;5077993;28;20197;-39
2023/07/25 06:40:37;;;;;;;0.30;0.30;;;26.80;61.50;;;27.35;45.32;94005.97;5077566;28;20291;-38
2023/07/25 06:43:04;;;;;;;0.30;0.30;;;26.80;61.40;;;27.35;45.43;93989.03;5076856;28;20558;-38
2023/07/25 06:45:32;;;;;;;0.25;0.25;;;26.70;61.40;;;27.33;45.70;93973.19;5076466;28;20266;-38
2023/07/25 06:47:59;;;;;;;0.32;0.32;;;26.70;61.60;;;27.32;45.22;93969.69;5076550;28;20592;-40
2023/07/25 06:50:26;;;;;;;0.30;0.30;;;26.70;61.60;;;27.31;45.52;93951.97;5076401;28;20236;-38
2023/07/25 06:52:53;;;;;;;0.30;0.30;;;26.70;61.80;;;27.32;46.03;93933.91;5076660;28;20211;-39
2023/07/25 06:55:20;;;;;;;0.30;0.30;;;26.70;61.90;;;27.32;45.98;93920.47;5076393;28;20225;-38
2023/07/25 06:57:48;;;;;;;0.30;0.30;;;26.70;62.20;;;27.33;46.28;93911.25;5077382;28;20195;-38
2023/07/25 07:00:15;;;;;;;0.30;0.30;;;26.70;62.20;;;27.34;45.93;93904.75;5077448;28;20237;-38
2023/07/25 07:02:43;;;;;;;0.30;0.30;;;26.70;62.20;;;27.35;45.91;93897.47;5077193;28;20201;-37
2023/07/25 07:05:10;;;;;;;0.30;0.30;;;26.80;62.30;;;27.36;46.45;93897.16;5077568;28;20212;-38
2023/07/25 07:07:54;;;;;;;0.30;0.30;;;26.80;62.50;;;27.37;46.32;93890.66;5077461;28;20183;-38
2023/07/25 07:10:22;;;;;;;0.22;0.22;;;26.80;62.50;;;27.38;45.99;93888.75;5076721;28;20284;-37
2023/07/25 07:12:50;;;;;;;0.30;0.30;;;26.80;62.50;;;27.38;46.63;93892.25;5077123;28;20204;-38
2023/07/25 07:15:17;;;;;;;0.30;0.30;;;26.80;62.50;;;27.40;46.67;93881.13;5076316;28;20269;-38
2023/07/25 07:17:45;;;;;;;0.30;0.30;;;26.80;62.60;;;27.40;46.49;93884.59;5077005;28;20251;-38
2023/07/25 07:20:12;;;;;;;0.22;0.22;;;26.80;62.60;;;27.41;46.71;93886.22;5076556;28;20655;-38
2023/07/25 07:22:39;;;;;;;0.38;0.38;;;26.80;62.60;;;27.42;46.19;93887.03;5076165;28;20219;-37
2023/07/25 07:25:07;;;;;;;0.30;0.30;;;26.80;62.50;;;27.41;46.04;93898.91;5076895;28;20199;-38
2023/07/25 07:27:35;;;;;;;0.30;0.30;;;26.80;62.20;;;27.38;45.73;93886.06;5075652;28;20232;-41
2023/07/25 07:30:03;;;;;;;0.32;0.32;;;26.80;62.20;;;27.35;46.54;93868.63;5076692;28;20250;-40
2023/07/25 07:32:30;;;;;;;0.35;0.35;;;26.80;62.40;;;27.35;46.39;93876.72;5076571;28;20193;-40
2023/07/25 07:34:57;;;;;;;0.30;0.30;;;26.80;62.30;;;27.35;46.54;93871.34;5076503;28;20227;-42
2023/07/25 07:37:25;;;;;;;0.40;0.40;;;26.80;62.50;;;27.35;46.01;93882.09;5075167;28;20213;-40
2023/07/25 07:39:52;;;;;;;0.20;0.20;;;26.80;62.20;;;27.31;46.16;93876.56;5076427;28;20654;-40
2023/07/25 07:42:19;;;;;;;0.30;0.30;;;26.80;62.30;;;27.31;46.55;93867.72;5076123;28;20243;-40
2023/07/25 07:44:47;;;;;;;0.30;0.30;;;26.70;63.30;;;27.31;46.24;93870.41;5075979;28;20307;-40
2023/07/25 07:47:14;;;;;;;0.28;0.28;;;26.80;62.50;;;27.31;46.67;93878.50;5076270;28;20526;-40
2023/07/25 07:49:41;;;;;;;0.30;0.30;;;26.80;62.60;;;27.31;47.17;93878.50;5076046;28;20241;-40
2023/07/25 07:52:08;;;;;;;0.30;0.30;;;26.80;62.80;;;27.32;46.73;93872.78;5074988;28;20206;-40
2023/07/25 07:54:52;;;;;;;0.30;0.30;;;26.80;62.80;;;27.30;46.66;93866.91;5076235;28;20178;-40
2023/07/25 07:57:19;;;;;;;0.30;0.30;;;26.70;62.80;;;27.32;47.20;93888.16;5075676;28;20211;-40
2023/07/25 07:59:46;;;;;;;0.30;0.30;;;26.80;62.70;;;27.33;46.58;93879.75;5075791;28;20204;-40
2023/07/25 08:02:13;;;;;;;0.30;0.30;;;26.80;62.70;;;27.33;46.99;93887.81;5075774;28;20200;-39
2023/07/25 08:04:41;;;;;;;0.22;0.22;;;26.70;62.60;;;27.30;46.79;93884.97;5075984;28;20190;-39
2023/07/25 08:07:08;;;;;;;0.30;0.30;;;26.80;62.60;;;27.29;46.75;93886.91;5075523;28;20287;-39
2023/07/25 08:09:35;;;;;;;0.30;0.30;;;26.80;62.70;;;27.31;46.91;93902.72;5075800;28;20314;-39
2023/07/25 08:12:04;;;;;;;0.30;0.30;;;26.80;62.70;;;27.27;46.75;93918.72;5075557;28;20218;-39
2023/07/25 08:14:31;;;;;;;0.30;0.30;;;26.70;62.60;;;27.28;46.76;93925.69;5075543;28;20198;-39
2023/07/25 08:16:58;;;;;;;0.30;0.30;;;26.70;62.50;;;27.24;46.82;93927.44;5075287;28;20179;-39
2023/07/25 08:19:25;;;;;;;0.20;0.20;;;26.70;62.60;;;27.22;46.63;93921.59;5075690;28;20287;-39
2023/07/25 08:21:54;;;;;;;0.30;0.30;;;26.70;62.40;;;27.20;46.87;93933.81;5075419;28;20188;-39
2023/07/25 08:24:21;;;;;;;0.30;0.30;;;26.70;63.50;;;27.16;46.44;93941.72;5075400;28;20598;-39
2023/07/25 08:26:48;;;;;;;0.30;0.30;;;26.70;62.50;;;27.13;46.85;93942.38;5075336;28;20278;-39
2023/07/25 08:29:16;;;;;;;0.30;0.30;;;26.70;63.50;;;27.12;46.38;93924.63;5075716;28;20217;-39
2023/07/25 08:31:43;;;;;;;0.20;0.20;;;26.60;62.60;;;27.08;46.60;93929.88;5074302;28;20633;-39
2023/07/25 08:34:10;;;;;;;0.30;0.30;;;26.60;62.60;;;27.06;46.55;93915.16;5075782;28;20232;-39
2023/07/25 08:36:37;;;;;;;0.30;0.30;;;26.60;62.70;;;27.05;46.77;93916.25;5075432;28;20198;-39
2023/07/25 08:39:04;;;;;;;0.30;0.30;;;26.50;62.70;;;27.07;46.60;93914.81;5075105;28;20543;-39
2023/07/25 08:41:37;;;;;;;0.30;0.30;;;26.50;63.80;;;27.08;46.87;93902.94;5075375;28;20195;-39
2023/07/25 08:44:09;;;;;;;0.25;0.25;;;26.50;63.10;;;27.09;47.31;93896.47;5074595;28;20236;-39
2023/07/25 08:46:41;;;;;;;0.30;0.30;;;26.50;63.10;;;27.08;47.10;93870.66;5075479;28;20662;-39
2023/07/25 08:49:14;;;;;;;0.30;0.30;;;26.50;63.30;;;27.12;47.26;93847.38;5074430;28;20304;-39
2023/07/25 08:51:47;;;;;;;0.30;0.30;;;26.50;63.40;;;27.14;47.15;93858.59;5057690;28;20190;-39
2023/07/25 08:54:38;;;;;;;0.20;0.20;;;26.60;63.40;;;27.14;47.01;93885.50;5075306;28;20244;-39
2023/07/25 08:57:06;;;;;;;0.30;0.30;;;26.60;63.20;;;27.15;46.96;93895.16;5074395;28;20555;-39
2023/07/25 08:59:33;;;;;;;0.38;0.38;;;26.60;63.10;;;27.15;47.15;93905.94;5074271;28;20202;-39
2023/07/25 09:02:01;;;;;;;0.30;0.30;;;26.60;63.10;;;27.15;47.44;93911.31;5074787;28;20198;-39
2023/07/25 09:04:29;;;;;;;0.20;0.20;;;26.60;63.00;;;27.14;47.40;93895.50;5057348;28;20202;-39
2023/07/25 09:06:56;;;;;;;0.40;0.40;;;26.60;62.90;;;27.14;47.03;93896.28;5073834;28;20198;-39
2023/07/25 09:09:23;;;;;;;0.30;0.30;;;26.60;62.90;;;27.14;47.10;93888.19;5074750;28;20220;-39
2023/07/25 09:11:51;;;;;;;0.30;0.30;;;26.60;62.90;;;27.14;47.16;93877.44;5074507;28;20632;-39
2023/07/25 09:14:19;;;;;;;0.40;0.40;;;26.60;62.90;;;27.13;46.93;93883.16;5074787;28;20203;-39
2023/07/25 09:16:47;;;;;;;0.30;0.30;;;26.60;62.80;;;27.11;46.41;93885.34;5074673;28;20191;-39
2023/07/25 09:19:14;;;;;;;0.30;0.30;;;26.60;62.80;;;27.12;47.06;93868.09;5075302;28;20302;-39
2023/07/25 09:21:57;;;;;;;0.20;0.20;;;26.60;63.00;;;27.13;47.36;93853.53;5074132;28;20208;-39
2023/07/25 09:24:38;;;;;;;0.30;0.30;;;26.60;63.10;;;27.16;47.71;93860.97;5074822;28;20186;-39
2023/07/25 09:27:16;;;;;;;0.30;0.30;;;26.60;63.20;;;27.17;47.39;93874.13;5074103;28;20192;-39
2023/07/25 09:29:47;;;;;;;0.30;0.30;;;26.60;63.30;;;27.21;47.75;93878.84;5075115;28;20631;-39
2023/07/25 09:32:19;;;;;;;0.30;0.30;;;26.60;63.40;;;27.23;47.80;93887.38;5074776;28;20182;-39
2023/07/25 09:34:57;;;;;;;0.30;0.30;;;26.60;63.30;;;27.25;47.41;93890.56;5078585;28;20263;-39
2023/07/25 09:37:24;;;;;;;0.30;0.30;;;26.70;63.40;;;27.26;47.14;93886.75;5078843;28;20209;-39
2023/07/25 09:39:52;;;;;;;0.20;0.20;;;26.70;63.10;;;27.28;47.10;93881.81;5078760;28;20232;-39
2023/07/25 09:42:23;;;;;;;0.30;0.30;;;26.70;62.80;;;27.28;47.29;93869.16;5077442;28;20202;-39
2023/07/25 09:44:53;;;;;;;0.30;0.30;;;26.70;62.90;;;27.30;47.48;93868.81;5078462;28;20234;-39
2023/07/25 09:47:25;;;;;;;0.20;0.20;;;26.70;63.00;;;27.31;47.30;93865.81;5078601;28;20223;-39
2023/07/25 09:49:54;;;;;;;0.30;0.30;;;26.80;63.20;;;27.33;47.00;93857.41;5078290;28;20243;-39
2023/07/25 09:52:25;;;;;;;0.30;0.30;;;26.80;63.10;;;27.35;47.23;93863.25;5078214;28;20188;-39
2023/07/25 09:54:52;;;;;;;0.30;0.30;;;26.80;63.00;;;27.35;47.19;93859.78;5078823;28;20209;-39
2023/07/25 09:57:19;;;;;;;0.28;0.28;;;26.80;63.00;;;27.36;47.46;93858.69;5077968;28;20197;-39
2023/07/25 09:59:49;;;;;;;0.30;0.30;;;26.80;63.10;;;27.38;47.21;93851.84;5078370;28;20213;-39
2023/07/25 10:02:17;;;;;;;0.30;0.30;;;26.80;63.10;;;27.39;46.99;93863.41;5078368;28;20191;-39
2023/07/25 10:04:46;;;;;;;0.20;0.20;;;26.80;63.00;;;27.39;46.93;93874.97;5078238;28;20201;-39
2023/07/25 10:07:14;;;;;;;0.30;0.30;;;26.80;63.10;;;27.40;46.83;93887.31;5077956;28;20197;-39
2023/07/25 10:09:45;;;;;;;0.25;0.25;;;26.80;63.90;;;27.40;46.95;93886.53;5078491;28;20292;-39
2023/07/25 10:12:12;;;;;;;0.30;0.30;;;26.80;62.90;;;27.41;46.92;93882.75;5077958;28;20266;-39
2023/07/25 10:14:39;;;;;;;0.30;0.30;;;26.80;62.90;;;27.42;46.81;93884.34;5060827;28;20507;-39
2023/07/25 10:17:07;;;;;;;0.20;0.20;;;26.80;63.80;;;27.43;47.21;93886.69;5077001;28;20223;-39
2023/07/25 10:19:56;;;;;;;0.30;0.30;;;26.90;62.90;;;27.43;47.03;93891.31;5076873;28;20208;-39
2023/07/25 10:22:40;;;;;;;0.30;0.30;;;26.90;62.70;;;27.42;46.52;93877.03;5077945;28;20566;-39
2023/07/25 10:25:10;;;;;;;0.30;0.30;;;26.90;62.60;;;27.43;47.28;93878.63;5077964;28;20194;-39